Nearby METAR Reports

 

EGNT - Newcastle, United Kingdom
Distance from station: NNE 1mi, 2km
Updated: 24/08/2019 15:20
Clear
Clear
 Wind from SSE
Wind: SSE 8 mph , 13 km/h
Temperature: 26°C
Dew Point: 13°C
Humidity: 45%
Barometer: 1017 hPa
Summary: Clear
Visibility: greater than 7 miles , 10 km
2019/08/24 14:20 EGNT 241420Z 15007KT 110V200 CAVOK 26/13 Q1017
EGQM - Boulmer, United Kingdom
Distance from station: N 29mi, 47km
Updated: 08/08/2019 12:50
NOT Current
Few Clouds
Few Clouds
 Wind from varies
Wind: varies 0 mph , 0 km/h
Temperature: 17°C
Dew Point: 14°C
Humidity: 83%
Barometer: 1009 hPa
Clouds: Few Clouds
Cloud details: Few Clouds 671 m
2019/08/08 11:50 EGQM 081150Z AUTO /////KT //// // FEW022/// 17/14 Q1009
 
EGOM - Spadeadam, United Kingdom
Distance from station: W 34mi, 54km
Updated: 24/08/2019 14:50
Mostly cloudy
Mostly cloudy
 Wind from SW
Wind: SW 13 mph , 20 km/h
Temperature: 23°C
Dew Point: 10°C
Humidity: 44%
Barometer: 1018 hPa
Clouds: Mostly cloudy
Visibility: 6 miles , 10 km
Cloud details: Mostly cloudy 5182 m
2019/08/24 13:50 EGOM 241350Z AUTO 22011KT 9999 BKN170/// 23/10 Q1018
EGNV - Tees-Side, United Kingdom
Distance from station: SSE 35mi, 57km
Updated: 24/08/2019 15:20
Clear
Clear
 Wind from S
Wind: S 13 mph , 20 km/h
Temperature: 25°C
Dew Point: 10°C
Humidity: 39%
Barometer: 1018 hPa
Summary: Clear
Visibility: greater than 7 miles , 10 km
2019/08/24 14:20 EGNV 241420Z 18011KT CAVOK 25/10 Q1018
 
EGNC - Carlisle, United Kingdom
Distance from station: W 45mi, 72km
Updated: 24/08/2019 15:20
Clear
Clear
 Wind from S
Wind: S 8 mph , 13 km/h
Temperature: 23°C
Dew Point: 11°C
Humidity: 47%
Barometer: 1017 hPa
Summary: Clear
Visibility: greater than 7 miles , 10 km
2019/08/24 14:20 EGNC 241420Z 19007KT CAVOK 23/11 Q1017
EGXE - Leeming Raf, United Kingdom
Distance from station: S 50mi, 81km
Updated: 24/08/2019 14:50
Clear
Clear
 Wind from SE
Wind: SE 13 mph , 20 km/h
Temperature: 26°C
Dew Point: 9°C
Humidity: 34%
Barometer: 1018 hPa
Clouds: Clear
Visibility: 6 miles , 10 km
2019/08/24 13:50 EGXE 241350Z AUTO 14011KT 9999 NCD 26/09 Q1018
 
EGXZ - Topcliffe Raf, United Kingdom
Distance from station: SSE 57mi, 91km
Updated: 24/08/2019 14:50
Clear
Clear
 Wind from S
Wind: S 13 mph , 20 km/h
Temperature: 26°C
Dew Point: 13°C
Humidity: 45%
Barometer: 1018 hPa
Clouds: Clear
Visibility: 6 miles , 10 km
2019/08/24 13:50 EGXZ 241350Z AUTO 17011KT 9999 NCD 26/13 Q1018
EGXU - Linton-On-Ouse R, United Kingdom
Distance from station: SSE 68mi, 110km
Updated: 24/08/2019 14:50
Clear
Clear
 Wind from S
Wind: S 12 mph , 19 km/h
Temperature: 27°C
Dew Point: 10°C
Humidity: 34%
Barometer: 1018 hPa
Clouds: Clear
Visibility: 6 miles , 10 km
2019/08/24 13:50 EGXU 241350Z AUTO 18010KT 9999 // NCD 27/10 Q1018
 
EGNM - Leeds And Bradfo, United Kingdom
Distance from station: S 78mi, 126km
Updated: 24/08/2019 15:20
Clear
Clear
 Wind from SSE
Wind: SSE 8 mph , 13 km/h
Temperature: 25°C
Dew Point: 10°C
Humidity: 39%
Barometer: 1018 hPa
Summary: Clear
Visibility: greater than 7 miles , 10 km
2019/08/24 14:20 EGNM 241420Z 16007KT 120V210 CAVOK 25/10 Q1018
EGPH - Edinburgh Airpor, United Kingdom
Distance from station: NW 92mi, 148km
Updated: 24/08/2019 15:20
Few Clouds
Few Clouds
 Wind from WSW
Wind: WSW 6 mph , 9 km/h
Temperature: 24°C
Dew Point: 15°C
Humidity: 57%
Barometer: 1017 hPa
Clouds: Few Clouds
Visibility: 6 miles , 10 km
Cloud details: Few Clouds 1341 m
2019/08/24 14:20 EGPH 241420Z 25005KT 130V280 9999 FEW044 24/15 Q1017
 
EGXV - Leconfield (aut), United Kingdom
Distance from station: SE 93mi, 150km
Updated: 24/08/2019 14:50
Clear
Clear
 Wind from S
Wind: S 8 mph , 13 km/h
Temperature: 27°C
Heat Index: 27°C
Dew Point: 13°C
Humidity: 42%
Barometer: 1018 hPa
Clouds: Clear
Visibility: 6 miles , 10 km
2019/08/24 13:50 EGXV 241350Z AUTO 18007KT 9999 NCD 27/13 Q1018
EGNO - Wharton, United Kingdom
Distance from station: SSW 99mi, 159km
Updated: 23/08/2019 16:50
NOT Current
Few Clouds
Few Clouds
 Wind from varies
Wind: varies 2 mph , 4 km/h
Temperature: 22°C
Dew Point: 16°C
Humidity: 69%
Barometer: 1021 hPa
Clouds: Few Clouds
Visibility: 6 miles , 10 km
Cloud details: Few Clouds 1128 m
2019/08/23 15:50 EGNO 231550Z VRB02KT 9999 FEW037 22/16 Q1021
 
EGNH - Blackpool Airpor, United Kingdom
Distance from station: SSW 100mi, 161km
Updated: 24/08/2019 15:20
Clear
Clear
 Wind from S
Wind: S 13 mph , 20 km/h
Temperature: 26°C
Dew Point: 13°C
Humidity: 45%
Barometer: 1017 hPa
Summary: Clear
Visibility: greater than 7 miles , 10 km
2019/08/24 14:20 EGNH 241420Z 19011KT CAVOK 26/13 Q1017